Terminal Aerodrome Forecast
Issued by NWS

Home | Current Version | Previous Version | Text Only | Print | Product List | Glossary On
Versions: 1 2 3 4 5 6 7 8 9 10 11 12 13 14
000
FTUS44 KTSA 241733
TAFRVS
TAF
KRVS 241733Z 2418/2518 17006KT P6SM VCTS SCT035CB BKN150
      TEMPO 2420/2422 3SM TSRA BR BKN025CB
     FM250100 17004KT P6SM SCT150
     FM251500 18008KT P6SM SCT030=

USA.gov is the U.S. government's official web portal to all federal, state and local government web resources and services.